Richmond, VA (23292)

12:32 AM EST on February 28, 2015 (GMT -0500)
Woodland Heights | Change Station
CLOSE
Current Station
Personal Weather Station
Location: Richmond, VA
Elevation: 144 ft
Nearby Weather Stations

Elev 144 ft 37.52 °N, 77.46 °W | Updated 14 seconds ago

Partly Cloudy
Partly Cloudy
28.0 °F
Feels Like 28 °F
N
0.7
Wind Variable Wind from ENE
Gusts 3.1 mph

Today
High -- | Low -- °F
--% Chance of Precip.
Yesterday
High -- | Low -- °F
Precip. -- in
6:42 AM 6:02 PM
Waxing Gibbous, 74% visible
Pressure 30.66 in
Visibility 10.0 miles
Clouds Mostly Cloudy 5000 ft
Windchill 28 °F
Dew Point 13 °F
Humidity 52%
Rainfall 0.00 in
Snow Depth Not available.
UV 0 out of 12
Pollen 3.10 out of 12
Air Quality Not available.
Flu Activity Not available.
METAR KRIC 280454Z 00000KT 10SM BKN050 M03/M08 A3064 RMK AO2 SLP381 T10331078 400281039

More Conditions Fewer Conditions

Pressure 30.66 in
Visibility 10.0 miles
Clouds Mostly Cloudy 5000 ft
Windchill 28 °F
Dew Point 13 °F
Humidity 52%
Rainfall 0.00 in
Snow Depth Not available.
UV 0 out of 12
Pollen 3.10 out of 12
Air Quality Not available.
Flu Activity Not available.
METAR KRIC 280454Z 00000KT 10SM BKN050 M03/M08 A3064 RMK AO2 SLP381 T10331078 400281039

More Conditions Fewer Conditions

10-Day Weather Forecast

Almanac

Astronomy

Feb. 28, 2015 Rise Set
Actual Time
Civil Twilight
Nautical Twilight
Astronomical Twilight
Moon
Length of Visible Light
Length of Day
Tomorrow will be .
, % of the Moon is Illuminated

Today's Extremes

State Highs State Lows

Community

WunderPhotos

Upload Photos

1,800,973 photos uploaded!

WunderBlogs® & News

Nearby

Air Quality

  Air Quality AQ Index Pollutant
Not available.

Snow Depth

Station Depth Elevation

Earthquake Activity

City Distance Mag. Time & Date
Minimum magnitude displayed is 2.5.

Coastal Water Temperatures

Place Temperature

Nearby Weather Stations